Aeroporto :
LOGIN :

Iscrizione | Disclaimer

   EN    FR    IT 

 










Sommario :    VFR   VFR Marginale   IFR   IFR Intensivo   IFR Molto Intensivo
Visibilità : 
Base nubi : 
>= 8 km
>= 3000ft
5 / 8 km
1000 / 3000 ft
1500m / 5 km
500 / 1000 ft
800 / 1500m
200 / 500 ft
< 800m
< 200 ft
Simboli :   Temporali  Nebbia  Neve Forte  Precipitazioni Forti  Vento > 20 kt
SIGMETs :   Varie  Temporali  Ghiacco  Turbolenza  Onda orograficha  Ceneri Vulcaniche







- Altitudine del aeroporto : 374 ft
- Codice IATA : LIS


LPPT - Lisboa Portela

ULTIMO METAR :
  • 141700Z 31012KT 9999 FEW035 25/16 Q1016

METARs OBSOLETI :
  • 141630Z 30010KT 9999 FEW035 26/16 Q1016
  • 141600Z 31010KT 280V340 9999 FEW035 26/16 Q1017
  • 141530Z 31011KT 9999 FEW035 26/16 Q1017
  • 141500Z 31012KT CAVOK 27/16 Q1017
  • 141430Z 31010KT CAVOK 28/17 Q1016

TAF TAF LPPT
Valido dal 14 a 12 ore il 15 a 18 ore UTC


141100Z 1412/1518 VRB05KT CAVOK
BECMG 1414/1416 32015KT
BECMG 1420/1423 31005KT 9999 SCT008
TEMPO 1501/1508 3000 BR BKN003
BECMG 1506/1509 VRB03KT SCT020
BECMG 1515/1517 32012KT FEW035
Nessun NOTAM noto per questo aeroporto.



MetMap, La meteo Aeronautica in un colpo d'occhio ! - Copyright ORBIFLY Dicembre 2007 - Disclaimer

ORBIFLY MET'MAP TEAM :

Programmazione e sviluppo : Alexandra Zaïnal
Concezione e sviluppo : Baudouin d'Aumeries
Co-Programmazione e sviluppo : Marc-Olivier Méhu
Supporto tecnico e logistico : Manuel Goepfert
Aiuto per la traduzione : Arnaldo La Scala

Contatto : metmap@orbifly.com




FONTI E CREDITI :

   NOAA